createdAt,value
2019-02-17T00:02:39.978Z,9.20
2019-02-17T00:07:44.198Z,7.03
2019-02-17T00:12:49.295Z,8.37
2019-02-17T00:17:53.488Z,9.83
2019-02-17T00:22:59.141Z,8.00
2019-02-17T00:28:03.309Z,12.33
2019-02-17T00:33:08.345Z,6.93
2019-02-17T00:38:12.522Z,9.97
2019-02-17T00:43:17.464Z,8.10
2019-02-17T00:48:21.670Z,12.97
2019-02-17T00:53:25.912Z,8.40
2019-02-17T00:58:30.127Z,10.80
2019-02-17T01:03:34.702Z,8.40
2019-02-17T01:08:38.899Z,9.93
2019-02-17T01:13:43.208Z,10.53
2019-02-17T01:18:47.387Z,7.80
2019-02-17T01:23:52.033Z,10.43
2019-02-17T01:28:56.228Z,9.23
2019-02-17T01:34:07.310Z,9.27
2019-02-17T01:39:12.553Z,8.50
2019-02-17T01:44:17.371Z,8.10
2019-02-17T01:49:21.566Z,7.40
2019-02-17T01:54:26.537Z,10.43
2019-02-17T01:59:31.058Z,9.13
2019-02-17T02:04:35.734Z,10.10
2019-02-17T02:09:39.911Z,8.23
2019-02-17T02:14:46.181Z,12.00
2019-02-17T02:19:50.431Z,9.10
2019-02-17T02:24:55.669Z,9.13
2019-02-17T02:29:59.865Z,10.50
2019-02-17T02:35:04.843Z,15.63
2019-02-17T02:40:10.139Z,12.60
2019-02-17T02:45:14.633Z,14.90
2019-02-17T02:50:20.163Z,8.57
2019-02-17T02:55:24.514Z,12.47
2019-02-17T03:00:28.690Z,10.43
2019-02-17T03:05:33.502Z,14.37
2019-02-17T03:10:37.675Z,10.13
2019-02-17T03:15:43.491Z,11.43
2019-02-17T03:20:47.679Z,14.17
2019-02-17T03:25:51.944Z,11.20
2019-02-17T03:30:56.127Z,10.90
2019-02-17T03:36:01.504Z,11.43
2019-02-17T03:41:06.763Z,12.87
2019-02-17T03:46:12.373Z,11.20
2019-02-17T03:51:16.540Z,12.57
2019-02-17T03:56:22.199Z,11.47
2019-02-17T04:01:26.463Z,12.17
2019-02-17T04:06:32.173Z,16.87
2019-02-17T04:11:36.413Z,13.83
2019-02-17T04:16:41.656Z,13.90
2019-02-17T04:21:45.839Z,11.17
2019-02-17T04:26:50.079Z,14.53
2019-02-17T04:31:54.261Z,9.97
2019-02-17T04:36:58.511Z,13.90
2019-02-17T04:42:02.706Z,9.70
2019-02-17T04:47:08.306Z,15.47
2019-02-17T04:52:12.606Z,12.07
2019-02-17T04:57:16.875Z,15.83
2019-02-17T05:02:21.142Z,14.77
2019-02-17T05:07:25.361Z,14.33
2019-02-17T05:12:29.562Z,12.87
2019-02-17T05:17:35.131Z,11.83
2019-02-17T05:22:39.656Z,18.30
2019-02-17T05:27:43.919Z,14.30
2019-02-17T05:32:48.193Z,14.83
2019-02-17T05:37:53.814Z,15.60
2019-02-17T05:42:58.185Z,14.77
2019-02-17T05:48:03.537Z,16.03
2019-02-17T05:53:10.641Z,16.27
2019-02-17T05:58:15.970Z,15.30
2019-02-17T06:03:20.204Z,14.37
2019-02-17T06:08:25.326Z,15.27
2019-02-17T06:13:29.564Z,15.10
2019-02-17T06:18:34.888Z,16.13
2019-02-17T06:23:39.148Z,18.47
2019-02-17T06:28:43.639Z,21.57
2019-02-17T06:33:47.943Z,16.50
2019-02-17T06:38:52.691Z,19.40
2019-02-17T06:43:57.142Z,15.70
2019-02-17T06:49:02.397Z,17.00
2019-02-17T06:54:06.590Z,14.33
2019-02-17T06:59:12.001Z,18.20
2019-02-17T07:04:16.718Z,16.67
2019-02-17T07:09:21.891Z,16.80
2019-02-17T07:14:26.097Z,18.63
2019-02-17T07:19:31.260Z,14.40
2019-02-17T07:24:35.505Z,18.60
2019-02-17T07:29:40.584Z,18.70
2019-02-17T07:34:44.815Z,18.20
2019-02-17T07:39:50.082Z,20.20
2019-02-17T07:44:54.327Z,20.13
2019-02-17T07:50:00.523Z,21.83
2019-02-17T07:55:04.829Z,23.53
2019-02-17T08:00:09.745Z,22.27
2019-02-17T08:05:14.026Z,18.80
2019-02-17T08:10:18.882Z,19.07
2019-02-17T08:15:23.176Z,21.07
2019-02-17T08:20:27.499Z,16.43
2019-02-17T08:25:31.696Z,20.83
2019-02-17T08:30:36.735Z,19.87
2019-02-17T08:35:40.920Z,17.57
2019-02-17T08:40:45.396Z,19.23
2019-02-17T08:45:49.966Z,21.97
2019-02-17T08:50:54.331Z,20.23
2019-02-17T08:55:58.947Z,17.23
2019-02-17T09:01:03.566Z,22.77
2019-02-17T09:06:07.805Z,20.80
2019-02-17T09:11:12.878Z,22.73
2019-02-17T09:16:17.125Z,18.75
2019-02-17T09:21:22.051Z,18.82
2019-02-17T09:26:26.560Z,19.13
2019-02-17T09:31:32.160Z,19.93
2019-02-17T09:36:36.656Z,19.97
2019-02-17T09:41:42.608Z,15.20
2019-02-17T09:46:47.065Z,20.37
2019-02-17T09:51:52.778Z,12.60
2019-02-17T09:56:57.302Z,19.10
2019-02-17T10:02:03.189Z,18.53
2019-02-17T10:07:07.668Z,18.70
2019-02-17T10:12:13.463Z,16.00
2019-02-17T10:17:20.078Z,20.27
2019-02-17T10:22:24.848Z,18.20
2019-02-17T10:27:29.328Z,15.23
2019-02-17T10:32:39.032Z,18.13
2019-02-17T10:37:41.305Z,16.83
2019-02-17T10:42:47.281Z,17.77
2019-02-17T10:47:51.939Z,14.37
2019-02-17T10:52:58.618Z,19.57
2019-02-17T10:58:03.097Z,20.27
2019-02-17T11:03:09.152Z,15.13
2019-02-17T11:08:13.669Z,25.00
2019-02-17T11:13:19.644Z,18.27
2019-02-17T11:18:24.135Z,10.33
2019-02-17T11:23:29.851Z,17.70
2019-02-17T11:28:34.339Z,15.50
2019-02-17T11:33:40.056Z,15.47
2019-02-17T11:38:44.571Z,18.33
2019-02-17T11:43:50.143Z,14.67
2019-02-17T11:48:54.607Z,16.07
2019-02-17T11:54:00.351Z,16.47
2019-02-17T11:59:04.864Z,18.10
2019-02-17T12:04:10.813Z,19.37
2019-02-17T12:09:15.287Z,15.40
2019-02-17T12:14:21.425Z,20.60
2019-02-17T12:19:28.722Z,20.43
2019-02-17T12:24:46.941Z,15.23
2019-02-17T12:29:59.624Z,17.27
2019-02-17T12:35:04.289Z,17.03
2019-02-17T12:40:10.310Z,17.53
2019-02-17T12:45:18.137Z,21.30
2019-02-17T12:50:21.035Z,21.33
2019-02-17T12:55:25.564Z,19.07
2019-02-17T13:00:30.147Z,19.60
2019-02-17T13:05:34.630Z,20.17
2019-02-17T13:10:39.295Z,23.47
2019-02-17T13:15:43.778Z,20.40
2019-02-17T13:20:48.420Z,22.03
2019-02-17T13:25:52.924Z,16.77
2019-02-17T13:30:57.475Z,20.80
2019-02-17T13:36:02.055Z,14.37
2019-02-17T13:41:07.687Z,21.40
2019-02-17T13:46:12.202Z,18.10
2019-02-17T13:51:16.845Z,24.27
2019-02-17T13:56:21.404Z,24.37
2019-02-17T14:01:27.095Z,16.40
2019-02-17T14:06:31.721Z,18.43
2019-02-17T14:11:37.185Z,22.70
2019-02-17T14:16:41.671Z,20.23
2019-02-17T14:21:47.253Z,20.07
2019-02-17T14:26:52.899Z,20.40
2019-02-17T14:31:57.540Z,17.77
2019-02-17T14:37:02.111Z,15.87
2019-02-17T14:42:07.001Z,12.57
2019-02-17T14:47:14.390Z,14.60
2019-02-17T14:52:18.923Z,15.23
2019-02-17T14:57:23.417Z,21.80
2019-02-17T15:02:27.963Z,19.03
2019-02-17T15:07:32.593Z,14.10
2019-02-17T15:12:37.515Z,14.20
2019-02-17T15:17:42.077Z,21.53
2019-02-17T15:22:47.410Z,15.97
2019-02-17T15:27:53.127Z,13.97
2019-02-17T15:33:03.887Z,15.00
2019-02-17T15:38:04.131Z,10.00
2019-02-17T15:43:08.994Z,5.80
2019-02-17T15:48:13.524Z,6.57
2019-02-17T15:53:18.543Z,5.03
2019-02-17T15:58:23.374Z,5.00
2019-02-17T16:03:28.265Z,7.30
2019-02-17T16:08:32.806Z,8.63
2019-02-17T16:13:37.723Z,7.70
2019-02-17T16:18:42.332Z,4.20
2019-02-17T16:23:47.539Z,4.30
2019-02-17T16:28:52.022Z,4.50
2019-02-17T16:33:56.748Z,6.33
2019-02-17T16:39:01.120Z,6.17
2019-02-17T16:44:07.595Z,6.10
2019-02-17T16:49:12.104Z,4.67
2019-02-17T16:54:16.762Z,5.97
2019-02-17T16:59:21.080Z,4.72
2019-02-17T17:04:26.198Z,5.55
2019-02-17T17:09:30.480Z,5.58
2019-02-17T17:14:35.012Z,4.70
2019-02-17T17:19:39.351Z,4.00
2019-02-17T17:24:44.334Z,3.45
2019-02-17T17:29:48.738Z,3.15
2019-02-17T17:34:58.958Z,3.30
2019-02-17T17:39:59.219Z,5.07
2019-02-17T17:45:04.108Z,6.67
2019-02-17T17:50:09.118Z,3.63
2019-02-17T17:55:14.693Z,3.07
2019-02-17T18:00:20.025Z,4.03
2019-02-17T18:05:26.565Z,5.87
2019-02-17T18:10:31.023Z,4.57
2019-02-17T18:15:36.631Z,4.03
2019-02-17T18:20:40.846Z,4.90
2019-02-17T18:25:46.243Z,5.60
2019-02-17T18:30:50.778Z,4.40
2019-02-17T18:35:56.438Z,5.83
2019-02-17T18:41:00.727Z,4.03
2019-02-17T18:46:07.475Z,4.03
2019-02-17T18:51:11.669Z,4.67
2019-02-17T18:56:16.783Z,3.17
2019-02-17T19:01:21.370Z,7.80
2019-02-17T19:06:26.902Z,5.00
2019-02-17T19:11:31.344Z,6.23
2019-02-17T19:16:36.946Z,3.53
2019-02-17T19:21:41.242Z,5.23
2019-02-17T19:26:47.090Z,8.60
2019-02-17T19:31:51.274Z,5.93
2019-02-17T19:36:56.877Z,7.30
2019-02-17T19:42:01.420Z,5.47
2019-02-17T19:47:07.072Z,7.43
2019-02-17T19:52:11.267Z,8.60
2019-02-17T19:57:16.959Z,5.93
2019-02-17T20:02:30.190Z,6.80
2019-02-17T20:07:34.470Z,6.70
2019-02-17T20:12:39.080Z,8.43
2019-02-17T20:17:44.757Z,5.00
2019-02-17T20:22:49.052Z,7.07
2019-02-17T20:27:54.796Z,6.30
2019-02-17T20:32:59.088Z,5.00
2019-02-17T20:38:04.858Z,7.43
2019-02-17T20:43:09.218Z,6.03
2019-02-17T20:48:14.658Z,14.10
2019-02-17T20:53:18.967Z,5.27
2019-02-17T20:58:24.304Z,9.80
2019-02-17T21:03:28.751Z,6.97
2019-02-17T21:08:34.036Z,5.70
2019-02-17T21:13:38.239Z,6.47
2019-02-17T21:18:43.743Z,5.77
2019-02-17T21:23:48.485Z,7.87
2019-02-17T21:28:55.829Z,4.67
2019-02-17T21:34:00.009Z,6.70
2019-02-17T21:39:05.748Z,7.03
2019-02-17T21:44:09.944Z,8.87
2019-02-17T21:49:15.186Z,7.83
2019-02-17T21:54:19.359Z,6.73
2019-02-17T21:59:24.387Z,7.77
2019-02-17T22:04:30.290Z,6.27
2019-02-17T22:09:34.561Z,8.50
2019-02-17T22:14:39.568Z,9.13
2019-02-17T22:19:43.734Z,7.73
2019-02-17T22:24:48.435Z,7.43
2019-02-17T22:29:52.659Z,7.77
2019-02-17T22:34:57.806Z,7.70
2019-02-17T22:40:02.803Z,6.80
2019-02-17T22:45:07.645Z,9.47
2019-02-17T22:50:11.853Z,7.70
2019-02-17T22:55:16.391Z,13.30
2019-02-17T23:00:27.542Z,8.03
2019-02-17T23:05:33.100Z,7.17
2019-02-17T23:10:37.319Z,7.07
2019-02-17T23:15:41.501Z,10.03
2019-02-17T23:20:45.764Z,8.27
2019-02-17T23:25:49.956Z,7.03
2019-02-17T23:30:55.222Z,8.17
2019-02-17T23:35:59.411Z,10.03
2019-02-17T23:41:03.603Z,8.70
2019-02-17T23:46:07.770Z,11.87
2019-02-17T23:51:13.023Z,10.93
2019-02-17T23:56:17.198Z,7.93
